Time;durP1;ratioP1;P1;durP2;ratioP2;P2;SDS_P1;SDS_P2;PMS_P1;PMS_P2;Temp;Humidity;BMP_temperature;BMP_pressure;BME280_temperature;BME280_humidity;BME280_pressure;Samples;Min_cycle;Max_cycle;Signal;HPM_P1;HPM_P2
2020/12/13 00:01:33;;;;;;;81.45;30.77;;;3.80;92.30;;;;;;5006330;28;20081;-76
2020/12/13 00:03:59;;;;;;;71.10;28.98;;;3.80;92.50;;;;;;5021940;28;20033;-77
2020/12/13 00:06:24;;;;;;;74.05;29.40;;;3.80;92.10;;;;;;4999852;28;20026;-77
2020/12/13 00:08:50;;;;;;;66.38;29.80;;;3.80;92.20;;;;;;5011699;28;20565;-78
2020/12/13 00:11:16;;;;;;;71.38;28.92;;;3.80;92.20;;;;;;5012661;28;20033;-78
2020/12/13 00:13:43;;;;;;;81.43;29.60;;;3.80;92.20;;;;;;5020210;28;20090;-78
2020/12/13 00:16:09;;;;;;;72.45;30.15;;;3.80;92.30;;;;;;5009526;28;20029;-78
2020/12/13 00:18:35;;;;;;;74.47;29.58;;;3.80;92.30;;;;;;5026699;28;20038;-78
2020/12/13 00:21:01;;;;;;;82.60;31.85;;;3.80;92.20;;;;;;5015620;28;20047;-76
2020/12/13 00:23:27;;;;;;;87.90;31.45;;;3.80;92.30;;;;;;5020528;28;20025;-78
2020/12/13 00:25:52;;;;;;;73.90;28.88;;;3.80;92.30;;;;;;5021104;28;20076;-78
2020/12/13 00:28:18;;;;;;;76.18;29.00;;;3.70;92.40;;;;;;5026207;28;20029;-78
2020/12/13 00:30:44;;;;;;;79.78;30.20;;;3.80;92.40;;;;;;5043509;28;20404;-77
2020/12/13 00:33:09;;;;;;;77.78;28.02;;;3.80;92.30;;;;;;5012067;28;20045;-78
2020/12/13 00:35:35;;;;;;;77.97;28.83;;;3.80;92.30;;;;;;5034938;28;20026;-78
2020/12/13 00:38:01;;;;;;;82.78;29.77;;;3.70;92.30;;;;;;5026127;28;20025;-78
2020/12/13 00:40:26;;;;;;;72.15;28.10;;;3.80;92.30;;;;;;5021354;28;20124;-77
2020/12/13 00:42:52;;;;;;;71.07;27.70;;;3.80;92.40;;;;;;5009769;28;20106;-77
2020/12/13 00:45:18;;;;;;;83.93;30.20;;;3.80;92.40;;;;;;5013301;28;20034;-76
2020/12/13 00:47:44;;;;;;;82.28;32.72;;;3.80;92.30;;;;;;5030996;28;20056;-77
2020/12/13 00:50:09;;;;;;;81.95;29.05;;;3.70;92.40;;;;;;5004972;28;20080;-78
2020/12/13 00:52:40;;;;;;;79.32;30.17;;;3.70;92.40;;;;;;5006530;28;20075;-78
2020/12/13 00:55:06;;;;;;;83.57;28.67;;;3.70;92.50;;;;;;5004491;28;20026;-77
2020/12/13 00:57:31;;;;;;;78.63;28.27;;;3.70;92.50;;;;;;5041224;28;20029;-78
2020/12/13 00:59:57;;;;;;;79.70;28.92;;;3.70;92.40;;;;;;5006855;28;20036;-78
2020/12/13 01:02:23;;;;;;;77.68;29.00;;;3.70;92.40;;;;;;5018165;28;20492;-78
2020/12/13 01:04:48;;;;;;;83.32;28.20;;;3.70;92.50;;;;;;5021036;28;20045;-76
2020/12/13 01:07:14;;;;;;;76.22;27.98;;;3.70;92.40;;;;;;5040776;28;20044;-78
2020/12/13 01:09:40;;;;;;;87.22;29.98;;;3.70;92.30;;;;;;5000615;28;20033;-78
2020/12/13 01:12:06;;;;;;;76.03;29.73;;;3.70;92.30;;;;;;5038893;28;20305;-78
2020/12/13 01:14:32;;;;;;;85.72;28.85;;;3.70;92.40;;;;;;5035476;28;20017;-78
2020/12/13 01:16:57;;;;;;;76.03;26.67;;;3.70;92.40;;;;;;5004659;28;20116;-76
2020/12/13 01:19:23;;;;;;;72.43;25.80;;;3.70;92.50;;;;;;5001237;28;20036;-77
2020/12/13 01:21:49;;;;;;;84.05;28.35;;;3.80;93.40;;;;;;5035137;28;20096;-76
2020/12/13 01:24:17;;;;;;;71.50;26.70;;;3.80;92.40;;;;;;5031224;28;20104;-75
2020/12/13 01:26:42;;;;;;;71.13;26.60;;;3.80;92.40;;;;;;5018530;28;20092;-76
2020/12/13 01:29:08;;;;;;;624.67;290.80;;;3.80;92.20;;;;;;5039005;28;20060;-77
2020/12/13 01:31:34;;;;;;;278.98;98.78;;;3.80;92.40;;;;;;5011750;28;20076;-77
2020/12/13 01:34:00;;;;;;;461.75;232.85;;;3.80;92.30;;;;;;5035454;28;20033;-77
2020/12/13 01:36:26;;;;;;;88.03;37.10;;;3.80;92.40;;;;;;5017834;28;20075;-77
2020/12/13 01:38:52;;;;;;;76.57;26.42;;;3.80;92.20;;;;;;5011780;28;20064;-77
2020/12/13 01:41:19;;;;;;;73.78;27.35;;;3.80;92.30;;;;;;5011710;28;20038;-77
2020/12/13 01:44:00;;;;;;;72.38;25.17;;;3.80;92.20;;;;;;5040615;28;20038;-77
2020/12/13 01:46:26;;;;;;;;;;;3.80;92.30;;;;;;5023628;28;20029;-77
2020/12/13 01:48:58;;;;;;;67.32;24.35;;;3.80;92.20;;;;;;5042036;28;19967;-76
2020/12/13 01:52:07;;;;;;;72.57;27.88;;;3.80;92.50;;;;;;5016772;28;20031;-76
2020/12/13 01:54:20;;;;;;;70.65;25.52;;;3.80;92.30;;;;;;5012840;28;20142;-77
2020/12/13 01:56:52;;;;;;;78.50;27.77;;;3.80;92.20;;;;;;5034324;28;20040;-77
2020/12/13 01:59:20;;;;;;;70.97;24.67;;;3.80;92.20;;;;;;5000753;28;20056;-77
2020/12/13 02:01:49;;;;;;;68.03;25.70;;;3.80;92.30;;;;;;5035753;28;20053;-77
2020/12/13 02:04:25;;;;;;;73.60;26.27;;;3.80;92.30;;;;;;5001132;28;20116;-77
2020/12/13 02:06:53;;;;;;;63.35;23.58;;;3.80;92.20;;;;;;5016879;28;20029;-77
2020/12/13 02:09:24;;;;;;;72.70;25.85;;;3.80;92.10;;;;;;5000585;28;20026;-77
2020/12/13 02:11:50;;;;;;;;;;;3.80;92.20;;;;;;5001665;28;20034;-77
2020/12/13 02:14:17;;;;;;;73.95;25.98;;;3.80;92.10;;;;;;5036662;28;19909;-75
2020/12/13 02:16:53;;;;;;;68.32;24.77;;;3.80;92.10;;;;;;5024087;28;20025;-77
2020/12/13 02:19:19;;;;;;;72.13;24.10;;;3.80;92.20;;;;;;5023173;28;20108;-77
2020/12/13 02:21:46;;;;;;;68.35;24.60;;;3.70;92.20;;;;;;5004926;28;20465;-77
2020/12/13 02:24:14;;;;;;;67.78;26.15;;;3.80;92.20;;;;;;5023186;28;20091;-77
2020/12/13 02:26:41;;;;;;;62.92;24.40;;;3.80;92.10;;;;;;5022184;28;20053;-76
2020/12/13 02:29:07;;;;;;;68.40;25.77;;;3.80;92.10;;;;;;5015095;28;20112;-76
2020/12/13 02:31:33;;;;;;;69.05;26.13;;;3.80;92.00;;;;;;5039800;28;20030;-77
2020/12/13 02:33:59;;;;;;;62.13;25.33;;;3.80;92.10;;;;;;5014166;28;20022;-77
2020/12/13 02:36:24;;;;;;;64.28;24.30;;;3.80;91.90;;;;;;5039306;28;20032;-78
2020/12/13 02:38:50;;;;;;;64.47;24.48;;;3.80;92.00;;;;;;5019330;28;20068;-78
2020/12/13 02:41:16;;;;;;;62.38;23.95;;;3.80;92.00;;;;;;5015250;28;20053;-77
2020/12/13 02:43:41;;;;;;;69.32;25.83;;;3.90;92.00;;;;;;5020397;28;20035;-78
2020/12/13 02:46:07;;;;;;;64.18;24.45;;;3.90;92.00;;;;;;5001274;28;20776;-78
2020/12/13 02:48:33;;;;;;;57.63;24.60;;;3.90;91.90;;;;;;5015912;28;20025;-78
2020/12/13 02:50:58;;;;;;;65.68;23.05;;;3.90;91.90;;;;;;5019292;28;20056;-77
2020/12/13 02:53:27;;;;;;;63.20;24.60;;;3.80;92.00;;;;;;5001095;28;20022;-77
2020/12/13 02:55:53;;;;;;;63.58;24.25;;;3.80;91.90;;;;;;5000152;28;20084;-78
2020/12/13 02:58:18;;;;;;;64.03;23.25;;;3.80;91.90;;;;;;5002755;28;20029;-78
2020/12/13 03:00:44;;;;;;;65.63;25.17;;;3.80;91.90;;;;;;5014184;28;20030;-77
2020/12/13 03:03:10;;;;;;;64.72;23.90;;;3.80;92.00;;;;;;5002357;28;20029;-78
2020/12/13 03:05:36;;;;;;;65.05;25.67;;;3.90;91.90;;;;;;5016969;28;20029;-77
2020/12/13 03:08:02;;;;;;;59.00;23.75;;;3.80;91.90;;;;;;4998376;28;20261;-77
2020/12/13 03:10:28;;;;;;;60.45;24.08;;;3.90;91.90;;;;;;5019383;28;20076;-78
2020/12/13 03:12:53;;;;;;;66.47;25.83;;;3.90;91.90;;;;;;5003599;28;20022;-78
2020/12/13 03:15:19;;;;;;;62.08;22.45;;;3.90;91.80;;;;;;5034690;28;20029;-78
2020/12/13 03:17:45;;;;;;;56.85;23.42;;;3.90;91.90;;;;;;5019323;28;20021;-78
2020/12/13 03:20:10;;;;;;;61.92;24.90;;;3.90;91.90;;;;;;5025659;28;20030;-76
2020/12/13 03:22:36;;;;;;;67.78;24.23;;;3.80;91.80;;;;;;5035977;28;20029;-76
2020/12/13 03:25:03;;;;;;;57.67;22.92;;;3.90;91.80;;;;;;5031986;28;20060;-78
2020/12/13 03:27:29;;;;;;;62.55;24.45;;;3.80;91.80;;;;;;5005452;28;20028;-77
2020/12/13 03:29:54;;;;;;;60.67;23.15;;;3.80;91.80;;;;;;5002347;28;20033;-74
2020/12/13 03:32:22;;;;;;;60.47;24.13;;;3.80;91.70;;;;;;4999064;28;20021;-77
2020/12/13 03:34:48;;;;;;;59.10;22.75;;;3.80;91.80;;;;;;5016405;28;20030;-78
2020/12/13 03:37:17;;;;;;;67.65;23.08;;;3.80;91.90;;;;;;5031771;28;20537;-78
2020/12/13 03:39:43;;;;;;;64.22;25.38;;;3.80;91.80;;;;;;4998586;28;20025;-78
2020/12/13 03:42:09;;;;;;;64.15;23.63;;;3.90;91.70;;;;;;4997036;28;20025;-76
2020/12/13 03:44:35;;;;;;;60.83;23.58;;;3.80;91.80;;;;;;5016249;28;20036;-78
2020/12/13 03:47:01;;;;;;;62.10;24.02;;;3.80;91.70;;;;;;5000173;28;20053;-77
2020/12/13 03:49:27;;;;;;;58.42;22.85;;;3.80;91.70;;;;;;5023491;28;20048;-77
2020/12/13 03:51:52;;;;;;;63.05;23.52;;;3.80;91.70;;;;;;5018790;28;20026;-77
2020/12/13 03:54:18;;;;;;;60.13;23.38;;;3.80;91.70;;;;;;5020858;28;20044;-78
2020/12/13 03:56:44;;;;;;;63.97;25.02;;;3.80;91.70;;;;;;5035546;28;20037;-78
2020/12/13 03:59:10;;;;;;;60.22;23.60;;;3.80;91.60;;;;;;5022421;28;20052;-78
2020/12/13 04:01:35;;;;;;;65.35;24.50;;;3.80;91.70;;;;;;5020518;28;20026;-78
2020/12/13 04:04:01;;;;;;;59.75;23.27;;;3.80;91.70;;;;;;5027356;28;20033;-77
2020/12/13 04:06:27;;;;;;;61.67;23.77;;;3.80;91.80;;;;;;5024518;28;20021;-78
2020/12/13 04:08:53;;;;;;;63.40;23.88;;;3.80;91.80;;;;;;5018033;28;20141;-78
2020/12/13 04:11:18;;;;;;;60.05;23.05;;;3.80;91.60;;;;;;5033243;28;20037;-77
2020/12/13 04:13:44;;;;;;;62.03;22.40;;;3.80;91.70;;;;;;5012163;28;20026;-78
2020/12/13 04:16:13;;;;;;;65.18;23.80;;;3.80;91.70;;;;;;5036439;28;20026;-78
2020/12/13 04:18:39;;;;;;;61.10;22.83;;;3.80;91.80;;;;;;5017788;28;20556;-78
2020/12/13 04:21:05;;;;;;;61.85;23.10;;;3.80;91.70;;;;;;5030931;28;20041;-77
2020/12/13 04:23:32;;;;;;;63.80;23.70;;;3.80;91.70;;;;;;5032521;28;20029;-78
2020/12/13 04:25:57;;;;;;;59.22;23.13;;;3.80;91.70;;;;;;5011186;28;20033;-77
2020/12/13 04:28:23;;;;;;;63.92;22.73;;;3.80;91.70;;;;;;5042420;28;20041;-78
2020/12/13 04:30:50;;;;;;;69.50;24.80;;;3.80;91.70;;;;;;5005504;28;20034;-78
2020/12/13 04:33:16;;;;;;;56.05;23.42;;;3.80;91.70;;;;;;5043068;28;20033;-77
2020/12/13 04:35:42;;;;;;;63.10;24.38;;;3.80;91.70;;;;;;5007468;28;20034;-79
2020/12/13 04:38:07;;;;;;;60.45;23.17;;;3.80;91.70;;;;;;5010366;28;20049;-77
2020/12/13 04:40:34;;;;;;;59.55;23.65;;;3.80;91.70;;;;;;5023965;28;20036;-78
2020/12/13 04:43:00;;;;;;;62.92;23.52;;;3.80;91.70;;;;;;5039429;28;20025;-78
2020/12/13 04:45:27;;;;;;;58.40;23.20;;;3.80;91.70;;;;;;5037013;28;20037;-77
2020/12/13 04:48:06;;;;;;;66.72;24.77;;;3.80;91.70;;;;;;5013362;28;20063;-77
2020/12/13 04:50:34;;;;;;;60.35;24.15;;;3.80;91.70;;;;;;5008318;28;20082;-76
2020/12/13 04:53:05;;;;;;;62.13;23.00;;;3.80;91.70;;;;;;5024457;28;20036;-77
2020/12/13 04:55:41;;;;;;;59.85;22.48;;;3.80;91.60;;;;;;5040657;28;20018;-77
2020/12/13 04:58:11;;;;;;;65.60;24.27;;;3.80;91.70;;;;;;5006934;28;20029;-77
2020/12/13 05:00:41;;;;;;;63.33;24.50;;;3.80;91.70;;;;;;5002136;28;20048;-77
2020/12/13 05:03:12;;;;;;;64.70;24.53;;;3.80;91.60;;;;;;5023371;28;20041;-77
2020/12/13 05:05:38;;;;;;;64.25;25.65;;;3.80;91.70;;;;;;5023088;28;20501;-78
2020/12/13 05:08:03;;;;;;;67.82;24.55;;;3.80;91.70;;;;;;5006120;28;20033;-77
2020/12/13 05:10:30;;;;;;;57.88;22.63;;;3.80;91.80;;;;;;5020816;28;20635;-77
2020/12/13 05:12:56;;;;;;;61.90;24.05;;;3.80;91.90;;;;;;5037899;28;20029;-77
2020/12/13 05:15:21;;;;;;;63.10;23.00;;;3.80;91.90;;;;;;5022861;28;20511;-77
2020/12/13 05:17:47;;;;;;;60.33;23.52;;;3.80;91.90;;;;;;5023216;28;20029;-77
2020/12/13 05:20:12;;;;;;;63.75;24.70;;;3.80;91.90;;;;;;5000989;28;20444;-77
2020/12/13 05:22:38;;;;;;;65.25;24.92;;;3.80;91.90;;;;;;5036993;28;20128;-77
2020/12/13 05:25:12;;;;;;;64.75;23.85;;;3.80;91.90;;;;;;5023334;28;20025;-77
2020/12/13 05:27:40;;;;;;;60.03;24.20;;;3.90;92.00;;;;;;5041272;28;20781;-77
2020/12/13 05:30:07;;;;;;;66.13;25.55;;;3.80;92.00;;;;;;5005411;28;20041;-77
2020/12/13 05:32:33;;;;;;;63.75;24.13;;;3.80;92.20;;;;;;5029942;28;20140;-77
2020/12/13 05:34:59;;;;;;;62.42;22.85;;;3.80;92.10;;;;;;5022618;28;20025;-77
2020/12/13 05:37:29;;;;;;;56.70;21.02;;;3.80;92.30;;;;;;5005854;28;20049;-77
2020/12/13 05:39:55;;;;;;;62.42;23.63;;;3.80;92.30;;;;;;5032949;28;20030;-76
2020/12/13 05:42:37;;;;;;;67.47;24.48;;;3.80;92.40;;;;;;5037673;28;20060;-77
2020/12/13 05:53:00;;;;;;;63.17;24.80;;;3.70;92.60;;;;;;5036260;28;20033;-76
2020/12/13 05:55:26;;;;;;;61.65;25.27;;;3.70;92.70;;;;;;5021813;28;20026;-77
2020/12/13 05:57:53;;;;;;;62.80;23.30;;;3.70;92.70;;;;;;5023283;28;20093;-77
2020/12/13 06:00:19;;;;;;;57.67;24.05;;;3.70;92.80;;;;;;5004300;28;20040;-76
2020/12/13 06:02:46;;;;;;;62.63;24.90;;;3.70;92.80;;;;;;5023487;28;20033;-77
2020/12/13 06:05:16;;;;;;;66.75;24.92;;;3.70;92.90;;;;;;5018324;28;20065;-77
2020/12/13 06:07:49;;;;;;;60.70;24.20;;;3.70;92.90;;;;;;5003608;28;20081;-77
2020/12/13 06:10:25;;;;;;;57.53;22.30;;;3.70;92.90;;;;;;5037391;28;20026;-76
2020/12/13 06:13:02;;;;;;;56.63;22.80;;;3.70;92.90;;;;;;5013338;28;20029;-77
2020/12/13 06:15:29;;;;;;;60.95;23.73;;;3.70;92.90;;;;;;5025835;28;20037;-77
2020/12/13 06:17:58;;;;;;;62.33;23.70;;;3.70;92.80;;;;;;5044585;28;20025;-77
2020/12/13 06:20:24;;;;;;;64.47;24.13;;;3.70;92.80;;;;;;5032946;28;20029;-77
2020/12/13 06:22:55;;;;;;;68.97;24.63;;;3.70;92.80;;;;;;5006237;28;20033;-77
2020/12/13 06:25:22;;;;;;;66.03;24.98;;;3.70;92.70;;;;;;5006055;28;20025;-77
2020/12/13 06:27:52;;;;;;;65.60;23.77;;;3.70;92.80;;;;;;5036170;28;20034;-76
2020/12/13 06:30:19;;;;;;;60.60;22.38;;;3.70;92.90;;;;;;5025890;28;20149;-77
2020/12/13 06:32:51;;;;;;;62.67;24.30;;;3.60;92.90;;;;;;5039434;28;20097;-77
2020/12/13 06:35:18;;;;;;;66.60;25.55;;;3.60;93.00;;;;;;5021490;28;20026;-78
2020/12/13 06:37:44;;;;;;;65.93;25.17;;;3.60;93.00;;;;;;5022127;28;20053;-77
2020/12/13 06:40:22;;;;;;;69.63;25.23;;;3.60;93.10;;;;;;5031220;28;20025;-77
2020/12/13 06:42:50;;;;;;;71.40;26.42;;;3.60;93.10;;;;;;5001351;28;20037;-78
2020/12/13 06:45:17;;;;;;;66.75;25.27;;;3.60;93.10;;;;;;5035828;28;20036;-77
2020/12/13 06:47:44;;;;;;;66.53;25.45;;;3.60;93.20;;;;;;5001784;28;20029;-78
2020/12/13 06:50:21;;;;;;;72.80;24.85;;;3.60;93.20;;;;;;5012348;28;20032;-77
2020/12/13 06:52:50;;;;;;;69.82;26.25;;;3.60;93.20;;;;;;5019186;28;20389;-78
2020/12/13 06:55:16;;;;;;;70.85;26.85;;;3.60;93.20;;;;;;5019289;28;20104;-76
2020/12/13 06:57:43;;;;;;;80.07;28.33;;;3.60;93.20;;;;;;5039033;28;20413;-76
2020/12/13 07:00:10;;;;;;;74.93;28.20;;;3.60;93.30;;;;;;5004228;28;20044;-78
2020/12/13 07:02:48;;;;;;;74.00;25.27;;;3.60;93.40;;;;;;5022121;28;20057;-78
2020/12/13 07:05:14;;;;;;;73.00;26.67;;;3.60;93.40;;;;;;5000949;28;20030;-78
2020/12/13 07:07:41;;;;;;;74.97;25.65;;;3.60;93.40;;;;;;5035849;28;20049;-77
2020/12/13 07:10:07;;;;;;;72.63;27.05;;;3.60;93.50;;;;;;5019473;28;20067;-78
2020/12/13 07:12:34;;;;;;;81.07;27.58;;;3.50;93.50;;;;;;5018173;28;20076;-78
2020/12/13 07:15:01;;;;;;;71.28;26.10;;;3.50;93.60;;;;;;5005091;28;20036;-78
2020/12/13 07:17:31;;;;;;;70.68;25.65;;;3.50;93.60;;;;;;5035751;28;20032;-74
2020/12/13 07:20:00;;;;;;;70.53;25.77;;;3.50;93.60;;;;;;5038681;28;20021;-77
2020/12/13 07:22:33;;;;;;;75.13;27.33;;;3.60;93.60;;;;;;5025849;28;20017;-77
2020/12/13 07:24:59;;;;;;;72.95;26.92;;;3.50;93.60;;;;;;5035907;28;20021;-77
2020/12/13 07:27:26;;;;;;;81.43;28.55;;;3.50;93.60;;;;;;5032704;28;20083;-77
2020/12/13 07:29:55;;;;;;;82.97;29.15;;;3.50;93.60;;;;;;5035848;28;20284;-77
2020/12/13 07:32:22;;;;;;;77.82;26.80;;;3.50;93.60;;;;;;5026415;28;20168;-77
2020/12/13 07:34:48;;;;;;;84.70;28.20;;;3.50;93.70;;;;;;4999436;28;20026;-78
2020/12/13 07:37:16;;;;;;;84.53;27.58;;;3.50;93.70;;;;;;5017956;28;20030;-78
2020/12/13 07:39:42;;;;;;;77.13;28.27;;;3.50;93.70;;;;;;4998837;28;20471;-78
2020/12/13 07:42:08;;;;;;;86.03;29.25;;;3.40;93.80;;;;;;5036592;28;20029;-77
2020/12/13 07:44:34;;;;;;;79.70;27.00;;;3.50;93.80;;;;;;5036104;28;20045;-77
2020/12/13 07:47:00;;;;;;;85.40;29.38;;;3.50;93.80;;;;;;5003517;28;20022;-76
2020/12/13 07:49:25;;;;;;;78.65;27.13;;;3.50;93.70;;;;;;5005961;28;20112;-77
2020/12/13 07:51:53;;;;;;;83.25;28.77;;;3.50;93.70;;;;;;5042176;28;20045;-77
2020/12/13 07:54:28;;;;;;;86.53;28.17;;;3.50;93.60;;;;;;5018456;28;20105;-77
2020/12/13 07:57:11;;;;;;;80.30;27.27;;;3.50;93.90;;;;;;5002797;28;20030;-77
2020/12/13 07:59:36;;;;;;;79.75;26.98;;;3.50;93.80;;;;;;5023176;28;20026;-79
2020/12/13 08:02:05;;;;;;;79.53;28.10;;;3.50;93.70;;;;;;5009829;28;20530;-76
2020/12/13 08:04:36;;;;;;;68.75;26.58;;;3.50;93.60;;;;;;5011092;28;20025;-81
2020/12/13 08:07:05;;;;;;;82.70;26.40;;;3.50;93.60;;;;;;5006464;28;20030;-77
2020/12/13 08:09:33;;;;;;;78.57;27.33;;;3.50;93.60;;;;;;5003541;28;20574;-80
2020/12/13 08:11:59;;;;;;;70.53;26.00;;;3.50;93.60;;;;;;5038103;28;20034;-78
2020/12/13 08:14:26;;;;;;;87.68;29.27;;;3.60;93.70;;;;;;5024159;28;20029;-78
2020/12/13 08:16:53;;;;;;;80.00;28.50;;;3.60;93.50;;;;;;5038761;28;20501;-78
2020/12/13 08:19:28;;;;;;;81.90;27.92;;;3.60;93.60;;;;;;5036411;28;20021;-80
2020/12/13 08:22:01;;;;;;;74.00;26.27;;;3.50;93.60;;;;;;5022780;28;20037;-79
2020/12/13 08:24:31;;;;;;;81.88;28.27;;;3.50;93.70;;;;;;5045549;28;20047;-78
2020/12/13 08:27:01;;;;;;;78.07;27.75;;;3.50;93.70;;;;;;5031107;28;20025;-77
2020/12/13 08:29:32;;;;;;;81.20;29.40;;;3.50;93.70;;;;;;5017809;28;20033;-80
2020/12/13 08:32:00;;;;;;;79.25;28.55;;;3.50;93.60;;;;;;5002122;28;20025;-78
2020/12/13 08:34:30;;;;;;;84.63;29.30;;;3.50;93.70;;;;;;5020586;28;20022;-77
2020/12/13 08:36:58;;;;;;;81.85;28.23;;;3.50;93.70;;;;;;5011960;28;20105;-77
2020/12/13 08:39:31;;;;;;;81.47;28.42;;;3.50;93.80;;;;;;5018581;28;20021;-79
2020/12/13 08:42:01;;;;;;;84.20;30.48;;;3.50;93.70;;;;;;5044261;28;20033;-78
2020/12/13 08:44:31;;;;;;;79.82;28.70;;;3.60;93.80;;;;;;5003986;28;20511;-78
2020/12/13 08:46:59;;;;;;;61.22;22.60;;;3.60;93.70;;;;;;5019371;28;20091;-77
2020/12/13 08:49:35;;;;;;;81.95;29.42;;;3.70;95.60;;;;;;5040384;28;20032;-77
2020/12/13 08:52:14;;;;;;;79.30;27.90;;;3.90;93.80;;;;;;5024355;28;20021;-77
2020/12/13 08:54:51;;;;;;;80.93;29.45;;;3.90;93.20;;;;;;5022212;28;20059;-76
2020/12/13 08:57:26;;;;;;;80.00;27.83;;;3.80;93.20;;;;;;5026277;28;20025;-78
2020/12/13 09:00:10;;;;;;;84.10;29.10;;;3.80;93.30;;;;;;5023800;28;20302;-78
2020/12/13 09:02:37;;;;;;;93.53;30.85;;;3.70;93.40;;;;;;4998180;28;20030;-82
2020/12/13 09:05:05;;;;;;;87.88;29.42;;;3.70;93.40;;;;;;4996577;28;20021;-78
2020/12/13 09:07:32;;;;;;;83.65;29.63;;;3.70;93.40;;;;;;5002414;28;20057;-78
2020/12/13 09:10:14;;;;;;;87.72;30.38;;;3.70;93.40;;;;;;5001785;28;20029;-76
2020/12/13 09:12:41;;;;;;;84.45;28.42;;;3.70;93.50;;;;;;4999446;28;20057;-76
2020/12/13 09:15:36;;;;;;;85.45;29.25;;;3.70;93.50;;;;;;5019347;28;20030;-76
2020/12/13 09:18:03;;;;;;;94.95;31.48;;;3.60;93.60;;;;;;5015671;28;20401;-78
2020/12/13 09:20:34;;;;;;;89.68;28.63;;;3.70;93.60;;;;;;5004160;28;20034;-76
2020/12/13 09:23:02;;;;;;;89.57;29.83;;;3.70;93.60;;;;;;5016300;28;20041;-76
2020/12/13 09:25:27;;;;;;;91.47;29.90;;;3.70;93.50;;;;;;5015753;28;20148;-76
2020/12/13 09:28:01;;;;;;;89.32;29.45;;;3.70;93.60;;;;;;5016350;28;20033;-76
2020/12/13 09:30:27;;;;;;;101.90;32.17;;;3.70;93.60;;;;;;5037078;28;20032;-77
2020/12/13 09:32:54;;;;;;;91.10;30.88;;;3.60;93.60;;;;;;4998950;28;20033;-75
2020/12/13 09:35:20;;;;;;;99.03;32.47;;;3.70;93.80;;;;;;5012209;28;20018;-75
2020/12/13 09:37:45;;;;;;;97.60;28.92;;;3.70;93.70;;;;;;5007485;28;20029;-80
2020/12/13 09:40:11;;;;;;;99.50;32.03;;;3.60;93.80;;;;;;5006779;28;20428;-77
2020/12/13 09:42:37;;;;;;;98.72;31.55;;;3.60;93.80;;;;;;5018263;28;20084;-79
2020/12/13 09:45:04;;;;;;;99.88;32.47;;;3.70;93.80;;;;;;5008728;28;20489;-77
2020/12/13 09:47:30;;;;;;;81.38;26.05;;;3.70;93.80;;;;;;5012809;28;20096;-77
2020/12/13 09:49:58;;;;;;;84.57;28.75;;;3.70;94.80;;;;;;5003309;28;21788;-77
2020/12/13 09:52:25;;;;;;;96.18;31.23;;;3.90;94.10;;;;;;5023916;28;20037;-77
2020/12/13 09:54:52;;;;;;;95.07;29.95;;;4.00;93.50;;;;;;4992295;28;20026;-79
2020/12/13 09:57:17;;;;;;;92.95;29.73;;;3.90;93.30;;;;;;5018006;28;20032;-78
2020/12/13 09:59:43;;;;;;;93.65;29.98;;;3.90;93.40;;;;;;5020269;28;20093;-81
2020/12/13 10:02:12;;;;;;;87.55;30.10;;;3.90;93.50;;;;;;5010729;28;20097;-79
2020/12/13 10:04:38;;;;;;;93.65;31.35;;;3.90;93.50;;;;;;5011866;28;20021;-80
2020/12/13 10:09:54;;;;;;;90.67;30.20;;;3.80;93.60;;;;;;5016331;28;20053;-78
2020/12/13 10:12:22;;;;;;;94.22;30.40;;;3.80;93.60;;;;;;5006246;28;20026;-78
2020/12/13 10:14:48;;;;;;;109.25;33.20;;;3.80;93.60;;;;;;5023390;28;20026;-78
2020/12/13 10:17:15;;;;;;;95.15;30.23;;;4.00;95.00;;;;;;5015859;28;20029;-78
2020/12/13 10:19:40;;;;;;;96.53;30.58;;;4.10;94.10;;;;;;5025231;28;20021;-80
2020/12/13 10:22:06;;;;;;;86.43;28.98;;;4.10;93.20;;;;;;5002561;28;20033;-77
2020/12/13 10:24:32;;;;;;;102.30;31.70;;;4.10;93.30;;;;;;5002729;28;20017;-77
2020/12/13 10:26:58;;;;;;;95.20;31.80;;;4.00;93.40;;;;;;5001200;28;20025;-77
2020/12/13 10:29:23;;;;;;;103.18;31.23;;;4.00;93.50;;;;;;5008091;28;20484;-77
2020/12/13 10:31:50;;;;;;;105.55;31.95;;;3.90;93.60;;;;;;5020386;28;20030;-77
2020/12/13 10:34:20;;;;;;;101.68;33.33;;;3.90;93.60;;;;;;5035424;28;20051;-77
2020/12/13 10:36:54;;;;;;;109.63;33.47;;;3.90;93.60;;;;;;5034276;28;20034;-77
2020/12/13 10:39:22;;;;;;;106.47;30.50;;;3.90;93.60;;;;;;5011477;28;20013;-78
2020/12/13 10:41:50;;;;;;;105.97;32.08;;;4.00;93.70;;;;;;5045437;28;20045;-79
2020/12/13 10:44:19;;;;;;;96.30;32.15;;;3.90;93.70;;;;;;5039835;28;20461;-80
2020/12/13 10:46:46;;;;;;;117.15;33.15;;;4.00;93.70;;;;;;5021381;28;20026;-80
2020/12/13 10:49:11;;;;;;;99.57;33.13;;;4.00;93.70;;;;;;5010903;28;20578;-79
2020/12/13 10:51:37;;;;;;;99.82;33.25;;;4.00;93.80;;;;;;5037244;28;20112;-81
2020/12/13 10:54:03;;;;;;;101.65;33.13;;;4.00;93.80;;;;;;5004816;28;20445;-78
2020/12/13 10:56:28;;;;;;;104.95;34.45;;;4.00;93.80;;;;;;5018448;28;20027;-78
2020/12/13 10:58:54;;;;;;;104.53;33.08;;;4.00;93.80;;;;;;5016656;28;20049;-78
2020/12/13 11:01:20;;;;;;;104.65;32.65;;;4.00;93.90;;;;;;5011576;28;20024;-78
2020/12/13 11:03:46;;;;;;;108.22;33.33;;;4.00;93.80;;;;;;4997816;28;20036;-77
2020/12/13 11:06:11;;;;;;;102.88;32.08;;;4.00;93.80;;;;;;4998651;28;20037;-77
2020/12/13 11:08:37;;;;;;;100.68;28.10;;;4.10;93.80;;;;;;5013738;28;20025;-76
2020/12/13 11:11:04;;;;;;;120.50;33.80;;;4.30;96.20;;;;;;5063855;22;20045;-79
2020/12/13 11:13:30;;;;;;;100.82;33.13;;;5.00;97.20;;;;;;5057355;28;20051;-80
2020/12/13 11:15:55;;;;;;;95.00;31.67;;;5.10;93.60;;;;;;5038185;28;20049;-80
2020/12/13 11:18:23;;;;;;;96.40;33.63;;;5.00;93.10;;;;;;5034174;28;20472;-81
2020/12/13 11:20:49;;;;;;;108.07;34.47;;;4.90;92.80;;;;;;5029651;28;20033;-80
2020/12/13 11:23:15;;;;;;;98.03;33.53;;;4.80;93.00;;;;;;5025789;28;20033;-78
2020/12/13 11:25:40;;;;;;;105.15;33.70;;;4.70;93.30;;;;;;5008119;28;20033;-79
2020/12/13 11:28:07;;;;;;;89.82;30.95;;;4.60;93.30;;;;;;5026111;28;20500;-78
2020/12/13 11:30:33;;;;;;;101.35;32.45;;;4.60;93.30;;;;;;5026407;28;20032;-79
2020/12/13 11:32:59;;;;;;;97.40;32.30;;;4.50;93.20;;;;;;5047019;28;20427;-78
2020/12/13 11:35:25;;;;;;;105.22;34.08;;;4.50;94.00;;;;;;5047831;28;20027;-79
2020/12/13 11:37:51;;;;;;;99.60;32.78;;;4.60;94.50;;;;;;5031691;28;20109;-81
2020/12/13 11:40:17;;;;;;;103.57;32.08;;;4.80;95.40;;;;;;5024641;28;20026;-79
2020/12/13 11:42:42;;;;;;;97.88;32.88;;;5.00;94.80;;;;;;5014126;28;20025;-78
2020/12/13 11:45:08;;;;;;;90.72;30.67;;;5.10;93.90;;;;;;5008462;28;20025;-80
2020/12/13 11:47:35;;;;;;;102.38;34.60;;;5.10;93.60;;;;;;5011808;28;20512;-81
2020/12/13 11:50:02;;;;;;;98.78;33.03;;;5.10;93.10;;;;;;5027013;28;20039;-81
2020/12/13 11:52:27;;;;;;;99.05;32.63;;;5.10;92.80;;;;;;5026655;28;20025;-81
2020/12/13 11:54:53;;;;;;;91.40;32.95;;;5.00;92.90;;;;;;5026945;28;20028;-80
2020/12/13 11:57:21;;;;;;;101.90;33.17;;;5.00;93.70;;;;;;5023371;28;20028;-79
2020/12/13 11:59:47;;;;;;;100.03;33.42;;;5.10;93.70;;;;;;5043756;28;20128;-77
2020/12/13 12:02:12;;;;;;;107.10;34.78;;;5.10;93.50;;;;;;5030113;28;20064;-77
2020/12/13 12:04:39;;;;;;;98.28;34.47;;;5.30;93.40;;;;;;5012963;28;20032;-77
2020/12/13 12:07:05;;;;;;;101.07;32.83;;;5.30;92.20;;;;;;5027590;28;20056;-77
2020/12/13 12:09:31;;;;;;;100.93;35.22;;;5.10;92.30;;;;;;5023105;28;20476;-77
2020/12/13 12:11:57;;;;;;;90.57;33.17;;;5.00;92.50;;;;;;5031247;28;20063;-77
2020/12/13 12:14:22;;;;;;;91.38;32.10;;;4.80;92.70;;;;;;5031856;28;20071;-77
2020/12/13 12:16:48;;;;;;;103.93;34.38;;;4.70;92.80;;;;;;5030457;28;20049;-77
2020/12/13 12:19:14;;;;;;;91.60;32.95;;;4.70;93.00;;;;;;5028631;28;20115;-77
2020/12/13 12:21:50;;;;;;;90.32;31.33;;;4.60;93.10;;;;;;5028512;28;20400;-77
2020/12/13 12:24:17;;;;;;;85.07;29.65;;;4.70;93.20;;;;;;5029952;28;20059;-78
2020/12/13 12:26:43;;;;;;;85.85;32.30;;;4.60;93.20;;;;;;5028934;28;20091;-78
2020/12/13 12:29:10;;;;;;;92.30;32.22;;;4.60;93.20;;;;;;5029035;28;20085;-77
2020/12/13 12:31:36;;;;;;;87.80;32.15;;;4.50;93.10;;;;;;5015233;28;20052;-78
2020/12/13 12:34:03;;;;;;;89.35;30.70;;;4.60;93.40;;;;;;5017193;28;20024;-79
2020/12/13 12:36:29;;;;;;;88.80;29.60;;;4.50;93.30;;;;;;5035419;28;20564;-77
2020/12/13 12:38:55;;;;;;;87.18;29.75;;;4.50;93.30;;;;;;5039346;28;20049;-77
2020/12/13 12:41:22;;;;;;;94.40;30.48;;;4.50;93.30;;;;;;5018216;28;20028;-78
2020/12/13 12:43:49;;;;;;;94.55;30.27;;;4.50;93.30;;;;;;5039276;28;20396;-78
2020/12/13 12:46:17;;;;;;;94.55;31.50;;;4.50;93.30;;;;;;5038723;28;20534;-80
2020/12/13 12:48:49;;;;;;;93.75;30.10;;;4.50;93.30;;;;;;5057767;28;20034;-79